Time;durP1;ratioP1;P1;durP2;ratioP2;P2;SDS_P1;SDS_P2;PMS_P1;PMS_P2;Temp;Humidity;BMP_temperature;BMP_pressure;BME280_temperature;BME280_humidity;BME280_pressure;Samples;Min_cycle;Max_cycle;Signal;HPM_P1;HPM_P2
2022/08/29 00:00:58;;;;;;;1.02;0.70;;;;;;;;;;10431998;28;20053;-88
2022/08/29 00:06:01;;;;;;;1.63;0.50;;;;;;;;;;10431917;28;20053;-89
2022/08/29 00:11:06;;;;;;;1.15;0.57;;;;;;;;;;10432089;28;20045;-88
2022/08/29 00:16:11;;;;;;;2.45;0.70;;;;;;;;;;10431895;28;20060;-88
2022/08/29 00:21:15;;;;;;;2.08;0.80;;;;;;;;;;10431554;28;20040;-90
2022/08/29 00:26:18;;;;;;;3.10;0.85;;;;;;;;;;10431387;28;20060;-88
2022/08/29 00:31:23;;;;;;;1.10;0.60;;;;;;;;;;10432159;28;20048;-90
2022/08/29 00:36:27;;;;;;;1.02;0.63;;;;;;;;;;10431464;28;20064;-87
2022/08/29 00:41:30;;;;;;;1.55;0.50;;;;;;;;;;10448175;28;20059;-89
2022/08/29 00:46:52;;;;;;;3.40;0.90;;;;;;;;;;10455468;28;20048;-89
2022/08/29 00:51:56;;;;;;;1.20;0.50;;;;;;;;;;10437460;28;20045;-88
2022/08/29 00:57:00;;;;;;;2.80;0.70;;;;;;;;;;10438452;28;20102;-88
2022/08/29 01:02:06;;;;;;;1.05;0.55;;;;;;;;;;10455313;28;20553;-88
2022/08/29 01:07:10;;;;;;;;;;;;;;;;;;10438696;28;20447;-88
2022/08/29 01:12:18;;;;;;;1.42;0.60;;;;;;;;;;10454422;28;19970;-89
2022/08/29 01:17:27;;;;;;;1.95;0.88;;;;;;;;;;10453897;28;20416;-89
2022/08/29 01:22:50;;;;;;;1.98;0.75;;;;;;;;;;10437960;28;20048;-88
2022/08/29 01:28:01;;;;;;;3.28;0.80;;;;;;;;;;10436821;28;20080;-89
2022/08/29 01:33:05;;;;;;;4.15;1.00;;;;;;;;;;10436157;28;20045;-88
2022/08/29 01:38:08;;;;;;;0.73;0.52;;;;;;;;;;10453288;28;20095;-89
2022/08/29 01:43:13;;;;;;;0.57;0.57;;;;;;;;;;10436068;28;20076;-88
2022/08/29 01:48:17;;;;;;;1.25;0.75;;;;;;;;;;10436490;28;20049;-88
2022/08/29 01:53:20;;;;;;;2.47;0.90;;;;;;;;;;10436272;28;20140;-90
2022/08/29 01:58:25;;;;;;;1.90;0.60;;;;;;;;;;10453800;28;20049;-89
2022/08/29 02:03:28;;;;;;;0.93;0.52;;;;;;;;;;10436230;28;20392;-88
2022/08/29 02:08:32;;;;;;;1.15;0.60;;;;;;;;;;10435280;28;20099;-88
2022/08/29 02:13:37;;;;;;;2.03;0.85;;;;;;;;;;10435734;28;20420;-88
2022/08/29 02:18:41;;;;;;;1.77;0.50;;;;;;;;;;10435862;28;20503;-88
2022/08/29 02:23:48;;;;;;;0.63;0.52;;;;;;;;;;10436163;28;20449;-89
2022/08/29 02:28:54;;;;;;;1.20;0.70;;;;;;;;;;10438082;28;20048;-89
2022/08/29 02:33:57;;;;;;;1.77;0.70;;;;;;;;;;10454915;28;20462;-88
2022/08/29 02:39:01;;;;;;;0.93;0.65;;;;;;;;;;10454884;28;20076;-87
2022/08/29 02:44:06;;;;;;;0.80;0.60;;;;;;;;;;10437634;28;20049;-88
2022/08/29 02:49:09;;;;;;;1.98;0.60;;;;;;;;;;10438059;28;20044;-88
2022/08/29 02:54:13;;;;;;;1.52;0.73;;;;;;;;;;10437371;28;20049;-89
2022/08/29 02:59:18;;;;;;;1.08;0.50;;;;;;;;;;10437516;28;20407;-87
2022/08/29 03:04:21;;;;;;;2.78;0.90;;;;;;;;;;10436839;28;20104;-88
2022/08/29 03:09:25;;;;;;;1.98;0.70;;;;;;;;;;10436746;28;20052;-88
2022/08/29 03:14:29;;;;;;;1.20;0.77;;;;;;;;;;10437077;28;20106;-88
2022/08/29 03:19:33;;;;;;;1.45;0.60;;;;;;;;;;10436957;28;20045;-88
2022/08/29 03:24:37;;;;;;;1.05;0.57;;;;;;;;;;10436748;28;20049;-88
2022/08/29 03:29:42;;;;;;;0.80;0.65;;;;;;;;;;10436745;28;20514;-89
2022/08/29 03:34:46;;;;;;;1.10;0.68;;;;;;;;;;10436727;28;20679;-88
2022/08/29 03:39:49;;;;;;;0.63;0.50;;;;;;;;;;10452762;28;20049;-88
2022/08/29 03:44:54;;;;;;;1.40;0.77;;;;;;;;;;10452919;28;20395;-89
2022/08/29 03:49:57;;;;;;;2.38;0.60;;;;;;;;;;10436166;28;20049;-89
2022/08/29 03:55:02;;;;;;;1.90;0.90;;;;;;;;;;10436420;28;20037;-88
2022/08/29 04:00:18;;;;;;;1.17;0.65;;;;;;;;;;10436247;28;20041;-89
2022/08/29 04:05:22;;;;;;;1.20;0.80;;;;;;;;;;10435801;28;20433;-89
2022/08/29 04:10:27;;;;;;;2.75;0.93;;;;;;;;;;10451905;28;20094;-88
2022/08/29 04:15:32;;;;;;;4.13;1.08;;;;;;;;;;10435845;28;20071;-88
2022/08/29 04:20:39;;;;;;;0.95;0.65;;;;;;;;;;10437740;28;20037;-86
2022/08/29 04:25:44;;;;;;;1.17;0.80;;;;;;;;;;10430754;28;20461;-86
2022/08/29 04:30:50;;;;;;;2.67;0.80;;;;;;;;;;10432950;28;20048;-87
2022/08/29 04:35:54;;;;;;;2.28;1.10;;;;;;;;;;10445131;28;20057;-86
2022/08/29 04:40:57;;;;;;;1.80;0.70;;;;;;;;;;10447001;28;20071;-86
2022/08/29 04:46:02;;;;;;;2.28;0.90;;;;;;;;;;10447701;28;20091;-86
2022/08/29 04:51:06;;;;;;;1.65;0.80;;;;;;;;;;10432238;28;20643;-87
2022/08/29 04:56:11;;;;;;;1.42;0.70;;;;;;;;;;10446946;28;20045;-87
2022/08/29 05:01:19;;;;;;;1.83;0.63;;;;;;;;;;10439719;28;20503;-87
2022/08/29 05:06:24;;;;;;;1.80;1.10;;;;;;;;;;10431484;28;20049;-86
2022/08/29 05:11:28;;;;;;;1.35;0.80;;;;;;;;;;10439669;28;20041;-87
2022/08/29 05:16:35;;;;;;;1.05;0.50;;;;;;;;;;10453306;28;20096;-87
2022/08/29 05:21:41;;;;;;;1.27;0.60;;;;;;;;;;10434750;28;20403;-86
2022/08/29 05:26:45;;;;;;;2.55;0.63;;;;;;;;;;10430623;28;20110;-86
2022/08/29 05:31:50;;;;;;;3.13;0.85;;;;;;;;;;10446870;28;20045;-86
2022/08/29 05:36:53;;;;;;;1.38;0.82;;;;;;;;;;10429813;28;20052;-87
2022/08/29 05:41:58;;;;;;;1.52;0.75;;;;;;;;;;10436694;28;20057;-86
2022/08/29 05:47:04;;;;;;;2.20;1.00;;;;;;;;;;10447522;28;20053;-87
2022/08/29 05:52:08;;;;;;;1.40;0.60;;;;;;;;;;10429643;28;20045;-85
2022/08/29 05:57:13;;;;;;;3.28;0.88;;;;;;;;;;10447749;28;20064;-86
2022/08/29 06:02:23;;;;;;;1.98;0.63;;;;;;;;;;10429784;28;20044;-85
2022/08/29 06:07:27;;;;;;;0.93;0.70;;;;;;;;;;10447018;28;20080;-85
2022/08/29 06:12:31;;;;;;;1.17;0.73;;;;;;;;;;10432947;28;20091;-85
2022/08/29 06:17:37;;;;;;;1.75;0.57;;;;;;;;;;10447612;28;20052;-86
2022/08/29 06:22:40;;;;;;;1.38;0.73;;;;;;;;;;10442267;28;20179;-86
2022/08/29 06:27:46;;;;;;;1.35;0.75;;;;;;;;;;10446524;28;20537;-86
2022/08/29 06:32:52;;;;;;;1.58;0.77;;;;;;;;;;10431534;28;20049;-85
2022/08/29 06:37:56;;;;;;;3.72;1.00;;;;;;;;;;10441549;28;20503;-86
2022/08/29 06:43:00;;;;;;;4.30;1.10;;;;;;;;;;10444247;28;20136;-86
2022/08/29 06:48:05;;;;;;;1.30;0.70;;;;;;;;;;10427029;28;20060;-86
2022/08/29 06:53:20;;;;;;;3.43;0.73;;;;;;;;;;10434650;28;20131;-86
2022/08/29 06:58:30;;;;;;;3.63;1.30;;;;;;;;;;10430868;28;20426;-86
2022/08/29 07:03:35;;;;;;;2.47;1.35;;;;;;;;;;10444932;28;20057;-86
2022/08/29 07:08:40;;;;;;;5.73;1.17;;;;;;;;;;10429726;28;20040;-86
2022/08/29 07:13:47;;;;;;;5.70;1.60;;;;;;;;;;10443205;28;20507;-86
2022/08/29 07:18:52;;;;;;;4.25;1.13;;;;;;;;;;10424391;28;20087;-85
2022/08/29 07:23:59;;;;;;;1.00;0.70;;;;;;;;;;10441253;28;20091;-86
2022/08/29 07:29:09;;;;;;;2.70;0.80;;;;;;;;;;10424989;28;20068;-85
2022/08/29 07:34:16;;;;;;;2.50;0.90;;;;;;;;;;10441505;28;20049;-86
2022/08/29 07:39:23;;;;;;;2.38;1.10;;;;;;;;;;10432670;28;20059;-85
2022/08/29 07:44:27;;;;;;;3.80;0.85;;;;;;;;;;10420207;28;20052;-85
2022/08/29 07:49:35;;;;;;;1.48;0.77;;;;;;;;;;10444329;28;20041;-86
2022/08/29 07:54:43;;;;;;;2.75;0.82;;;;;;;;;;10429509;28;20122;-86
2022/08/29 07:59:47;;;;;;;5.70;1.13;;;;;;;;;;10427773;28;20380;-86
2022/08/29 08:04:52;;;;;;;1.33;0.82;;;;;;;;;;10429063;28;20151;-85
2022/08/29 08:09:56;;;;;;;2.87;1.27;;;;;;;;;;10450844;28;20045;-86
2022/08/29 08:14:59;;;;;;;1.92;0.90;;;;;;;;;;10441729;28;20099;-86
2022/08/29 08:20:06;;;;;;;2.15;0.73;;;;;;;;;;10441075;28;20040;-87
2022/08/29 08:25:10;;;;;;;2.05;0.90;;;;;;;;;;10424516;28;20099;-86
2022/08/29 08:30:14;;;;;;;1.95;0.90;;;;;;;;;;10439659;28;20041;-86
2022/08/29 08:35:20;;;;;;;2.17;0.63;;;;;;;;;;10441262;28;20099;-85
2022/08/29 08:40:27;;;;;;;1.63;0.60;;;;;;;;;;10438871;28;20435;-87
2022/08/29 08:45:36;;;;;;;2.25;0.70;;;;;;;;;;10439223;28;20036;-87
2022/08/29 08:50:45;;;;;;;0.57;0.50;;;;;;;;;;10444476;28;20052;-87
2022/08/29 08:55:50;;;;;;;1.25;0.60;;;;;;;;;;10442250;28;20087;-86
2022/08/29 09:00:58;;;;;;;4.53;0.90;;;;;;;;;;10426129;28;20159;-87
2022/08/29 09:06:15;;;;;;;1.17;0.50;;;;;;;;;;10448706;28;20045;-86
2022/08/29 09:11:26;;;;;;;2.33;0.68;;;;;;;;;;10445931;28;20063;-86
2022/08/29 09:16:34;;;;;;;1.40;0.47;;;;;;;;;;10452904;28;20407;-87
2022/08/29 09:21:58;;;;;;;3.70;0.93;;;;;;;;;;10436205;28;20044;-86
2022/08/29 09:41:41;;;;;;;2.08;0.63;;;;;;;;;;10279424;28;20513;-88
2022/08/29 09:47:08;;;;;;;2.28;0.77;;;;;;;;;;10271838;28;20086;-88
2022/08/29 09:52:15;;;;;;;0.68;0.47;;;;;;;;;;10281262;28;20050;-88
2022/08/29 10:11:19;;;;;;;1.30;0.47;;;;;;;;;;10279326;28;20258;-87
2022/08/29 10:16:33;;;;;;;1.85;0.90;;;;;;;;;;10281285;28;20055;-87
2022/08/29 10:50:24;;;;;;;1.70;0.60;;;;;;;;;;10282163;28;20046;-89
2022/08/29 10:55:55;;;;;;;2.97;0.98;;;;;;;;;;10279162;28;20074;-89
2022/08/29 11:28:38;;;;;;;0.73;0.50;;;;;;;;;;10273532;28;20042;-90
2022/08/29 11:34:31;;;;;;;0.95;0.80;;;;;;;;;;10256694;28;20294;-89
2022/08/29 11:39:49;;;;;;;3.00;0.77;;;;;;;;;;10276496;28;20046;-90
2022/08/29 11:44:56;;;;;;;1.30;0.70;;;;;;;;;;10265724;28;20046;-89
2022/08/29 11:50:10;;;;;;;2.78;0.90;;;;;;;;;;10264455;28;20066;-90
2022/08/29 12:02:08;;;;;;;1.92;0.70;;;;;;;;;;10444945;28;20033;-89
2022/08/29 12:07:12;;;;;;;2.65;0.90;;;;;;;;;;10436426;28;20048;-89
2022/08/29 12:12:18;;;;;;;0.82;0.52;;;;;;;;;;10430251;28;20094;-89
2022/08/29 12:17:45;;;;;;;1.10;0.77;;;;;;;;;;10432994;28;20053;-89
2022/08/29 12:23:18;;;;;;;0.85;0.70;;;;;;;;;;10445732;28;20056;-89
2022/08/29 12:28:43;;;;;;;1.60;0.90;;;;;;;;;;10421815;28;20065;-89
2022/08/29 13:01:36;;;;;;;1.42;0.80;;;;;;;;;;10450291;28;20045;-89
2022/08/29 13:06:52;;;;;;;1.13;0.57;;;;;;;;;;10440640;28;20045;-89
2022/08/29 13:12:15;;;;;;;1.35;0.70;;;;;;;;;;10439579;28;20090;-87
2022/08/29 13:17:23;;;;;;;1.77;1.10;;;;;;;;;;10430585;28;20047;-89
2022/08/29 13:22:26;;;;;;;1.15;0.70;;;;;;;;;;10451317;28;20061;-89
2022/08/29 13:27:34;;;;;;;1.35;0.70;;;;;;;;;;10453183;28;20055;-89
2022/08/29 13:32:48;;;;;;;1.17;0.50;;;;;;;;;;10479583;28;20036;-89
2022/08/29 13:38:10;;;;;;;;;;;;;;;;;;10463308;28;20061;-89
2022/08/29 13:43:32;;;;;;;1.02;0.75;;;;;;;;;;10443312;28;19921;-89
2022/08/29 13:48:37;;;;;;;1.25;0.60;;;;;;;;;;10452237;28;20075;-89
2022/08/29 13:53:41;;;;;;;2.53;0.80;;;;;;;;;;10449884;28;20045;-89
2022/08/29 13:58:44;;;;;;;1.23;0.57;;;;;;;;;;10450477;28;20499;-90
2022/08/29 14:03:49;;;;;;;0.63;0.55;;;;;;;;;;10388974;28;20045;-89
2022/08/29 14:08:53;;;;;;;1.10;0.70;;;;;;;;;;10404707;28;20053;-89
2022/08/29 14:27:24;;;;;;;1.85;0.90;;;;;;;;;;10395318;28;20073;-89
2022/08/29 14:32:27;;;;;;;1.73;1.00;;;;;;;;;;10408376;28;20084;-89
2022/08/29 14:37:31;;;;;;;1.50;0.80;;;;;;;;;;10392410;28;20041;-89
2022/08/29 14:42:37;;;;;;;3.33;1.10;;;;;;;;;;10406674;28;20092;-89
2022/08/29 14:47:45;;;;;;;2.10;1.52;;;;;;;;;;10394616;28;20041;-89
2022/08/29 14:52:48;;;;;;;3.25;1.52;;;;;;;;;;10397987;28;20045;-89
2022/08/29 14:57:53;;;;;;;6.05;1.85;;;;;;;;;;10384756;28;20108;-89
2022/08/29 15:02:56;;;;;;;;;;;;;;;;;;10406950;28;20184;-89
2022/08/29 15:14:06;;;;;;;2.85;0.93;;;;;;;;;;10391537;28;20037;-88
2022/08/29 15:19:10;;;;;;;1.35;0.90;;;;;;;;;;10406699;28;20103;-89
2022/08/29 15:24:33;;;;;;;1.17;0.70;;;;;;;;;;10406533;28;20137;-90
2022/08/29 15:29:39;;;;;;;1.08;0.60;;;;;;;;;;10406677;28;20531;-88
2022/08/29 15:34:46;;;;;;;2.72;1.00;;;;;;;;;;10421074;28;20049;-89
2022/08/29 15:48:07;;;;;;;1.02;0.77;;;;;;;;;;10399540;28;20478;-89
2022/08/29 16:06:53;;;;;;;1.00;0.68;;;;;;;;;;10441902;28;20075;-88
2022/08/29 16:11:59;;;;;;;0.90;0.60;;;;;;;;;;10443747;28;20049;-89
2022/08/29 16:17:05;;;;;;;1.55;0.80;;;;;;;;;;10435774;28;20072;-88
2022/08/29 16:22:11;;;;;;;1.10;0.65;;;;;;;;;;10425854;28;20076;-88
2022/08/29 16:27:15;;;;;;;1.20;0.80;;;;;;;;;;10424825;28;20071;-86
2022/08/29 16:32:18;;;;;;;0.93;0.68;;;;;;;;;;10440231;28;20103;-90
2022/08/29 16:37:25;;;;;;;0.80;0.70;;;;;;;;;;10435600;28;20072;-89
2022/08/29 16:42:28;;;;;;;1.27;0.50;;;;;;;;;;10449463;28;20087;-89
2022/08/29 16:47:33;;;;;;;0.88;0.60;;;;;;;;;;10446406;28;20107;-89
2022/08/29 16:52:41;;;;;;;0.80;0.70;;;;;;;;;;10436824;28;20064;-88
2022/08/29 16:58:57;;;;;;;1.42;0.55;;;;;;;;;;10436550;28;20044;-86
2022/08/29 17:03:16;;;;;;;1.30;0.70;;;;;;;;;;10440706;28;20055;-90
2022/08/29 17:25:29;;;;;;;1.25;0.50;;;;;;;;;;10442666;28;20099;-89
2022/08/29 17:58:57;;;;;;;0.82;0.75;;;;;;;;;;10438473;28;20584;-90
2022/08/29 18:04:00;;;;;;;1.48;0.57;;;;;;;;;;10433409;28;20403;-89
2022/08/29 18:09:08;;;;;;;1.27;0.70;;;;;;;;;;10430026;28;20055;-89
2022/08/29 18:14:13;;;;;;;1.42;0.90;;;;;;;;;;10436594;28;20041;-89
2022/08/29 18:19:21;;;;;;;1.20;0.70;;;;;;;;;;10436300;28;20127;-89
2022/08/29 18:24:26;;;;;;;1.35;0.60;;;;;;;;;;10429286;28;20048;-87
2022/08/29 18:36:38;;;;;;;1.10;0.90;;;;;;;;;;10439017;28;20399;-88
2022/08/29 18:41:42;;;;;;;1.08;0.90;;;;;;;;;;10538817;22;20088;-78
2022/08/29 18:46:45;;;;;;;1.38;1.00;;;;;;;;;;10528940;28;20085;-78
2022/08/29 18:51:51;;;;;;;2.35;1.30;;;;;;;;;;10539955;28;20452;-79
2022/08/29 18:56:54;;;;;;;0.90;0.80;;;;;;;;;;10512869;28;20040;-78
2022/08/29 19:01:57;;;;;;;2.97;0.90;;;;;;;;;;10511668;28;20859;-77
2022/08/29 19:07:05;;;;;;;1.83;0.75;;;;;;;;;;10501883;28;20501;-79
2022/08/29 19:12:09;;;;;;;2.50;0.75;;;;;;;;;;10537848;28;20044;-78
2022/08/29 19:17:13;;;;;;;0.93;0.80;;;;;;;;;;10518375;28;20047;-78
2022/08/29 19:22:18;;;;;;;1.08;0.80;;;;;;;;;;10536727;28;20435;-78
2022/08/29 19:27:24;;;;;;;2.00;0.95;;;;;;;;;;10525425;28;20074;-78
2022/08/29 19:32:42;;;;;;;2.33;1.08;;;;;;;;;;10510155;28;20050;-78
2022/08/29 19:37:46;;;;;;;1.15;0.90;;;;;;;;;;10526879;28;20040;-78
2022/08/29 19:42:50;;;;;;;3.60;0.90;;;;;;;;;;10544707;28;20040;-78
2022/08/29 19:47:53;;;;;;;2.22;1.05;;;;;;;;;;10501126;28;20123;-78
2022/08/29 19:52:59;;;;;;;4.18;1.00;;;;;;;;;;10518913;28;20068;-78
2022/08/29 19:58:03;;;;;;;1.65;0.98;;;;;;;;;;10509000;28;20032;-79
2022/08/29 20:03:07;;;;;;;2.58;1.40;;;;;;;;;;10510330;28;20057;-78
2022/08/29 20:08:12;;;;;;;3.25;1.02;;;;;;;;;;10527190;28;20406;-79
2022/08/29 20:13:15;;;;;;;1.50;0.80;;;;;;;;;;10537935;28;20043;-78
2022/08/29 20:18:21;;;;;;;1.73;1.10;;;;;;;;;;10516181;28;20044;-78
2022/08/29 20:23:26;;;;;;;1.95;1.20;;;;;;;;;;10536211;28;20051;-78
2022/08/29 20:28:32;;;;;;;1.23;0.93;;;;;;;;;;10524352;28;20096;-78
2022/08/29 20:33:41;;;;;;;1.75;0.95;;;;;;;;;;10537117;22;20355;-77
2022/08/29 20:38:46;;;;;;;1.85;1.13;;;;;;;;;;10498370;28;20048;-78
2022/08/29 20:43:49;;;;;;;2.03;1.02;;;;;;;;;;10509694;28;20059;-79
2022/08/29 20:48:53;;;;;;;1.67;0.82;;;;;;;;;;10510459;28;20106;-78
2022/08/29 20:53:58;;;;;;;1.60;0.85;;;;;;;;;;10515664;28;20039;-78
2022/08/29 20:59:01;;;;;;;1.93;1.00;;;;;;;;;;10525926;28;20133;-78
2022/08/29 21:09:28;;;;;;;1.40;0.93;;;;;;;;;;10514553;28;20040;-79
2022/08/29 21:14:32;;;;;;;1.25;0.93;;;;;;;;;;10531159;28;20106;-77
2022/08/29 21:19:35;;;;;;;1.83;1.10;;;;;;;;;;10529142;28;20063;-79
2022/08/29 21:24:40;;;;;;;2.88;1.20;;;;;;;;;;10532294;28;20044;-77
2022/08/29 21:29:45;;;;;;;1.77;0.77;;;;;;;;;;10509275;28;20043;-77
2022/08/29 21:34:49;;;;;;;1.63;1.08;;;;;;;;;;10512036;28;20094;-79
2022/08/29 21:39:53;;;;;;;1.40;0.85;;;;;;;;;;10513019;28;20052;-76
2022/08/29 21:44:57;;;;;;;2.60;0.98;;;;;;;;;;10514985;28;20035;-78
2022/08/29 21:50:01;;;;;;;2.15;1.20;;;;;;;;;;10501335;28;20106;-76
2022/08/29 21:55:07;;;;;;;2.10;1.00;;;;;;;;;;10519591;28;20040;-79
2022/08/29 22:00:12;;;;;;;0.82;0.73;;;;;;;;;;10531573;28;20040;-78
2022/08/29 22:05:16;;;;;;;2.05;1.00;;;;;;;;;;10525458;28;20259;-79
2022/08/29 22:10:23;;;;;;;2.00;0.85;;;;;;;;;;10513385;28;20101;-78
2022/08/29 22:20:49;;;;;;;1.98;0.80;;;;;;;;;;10503722;28;20040;-78
2022/08/29 22:25:55;;;;;;;1.67;0.95;;;;;;;;;;10527144;28;20139;-79
2022/08/29 22:30:59;;;;;;;2.00;1.10;;;;;;;;;;10508684;28;20496;-76
2022/08/29 22:36:03;;;;;;;1.30;0.90;;;;;;;;;;10525955;28;20422;-76
2022/08/29 22:41:10;;;;;;;0.90;0.77;;;;;;;;;;10526578;28;20503;-79
2022/08/29 22:46:18;;;;;;;1.15;0.90;;;;;;;;;;10506426;28;20044;-76
2022/08/29 22:51:24;;;;;;;3.55;1.10;;;;;;;;;;10498832;28;20568;-79
2022/08/29 22:56:29;;;;;;;2.35;1.27;;;;;;;;;;10508842;28;20119;-79
2022/08/29 23:01:34;;;;;;;2.42;1.08;;;;;;;;;;10508145;28;20044;-79
2022/08/29 23:06:37;;;;;;;1.83;1.23;;;;;;;;;;10535301;28;20032;-79
2022/08/29 23:11:42;;;;;;;2.92;1.08;;;;;;;;;;10510218;28;20225;-79
2022/08/29 23:16:46;;;;;;;2.08;0.90;;;;;;;;;;10531990;28;20041;-76
2022/08/29 23:21:49;;;;;;;2.15;1.35;;;;;;;;;;10507289;28;20044;-79
2022/08/29 23:26:54;;;;;;;1.23;0.90;;;;;;;;;;10510967;28;20055;-78
2022/08/29 23:31:57;;;;;;;1.77;1.00;;;;;;;;;;10525253;28;20451;-78
2022/08/29 23:37:01;;;;;;;1.35;0.95;;;;;;;;;;10525887;28;20131;-78
2022/08/29 23:42:06;;;;;;;1.40;1.00;;;;;;;;;;10508654;28;20036;-77
2022/08/29 23:47:09;;;;;;;1.97;0.97;;;;;;;;;;10496026;28;20036;-78
2022/08/29 23:52:13;;;;;;;4.38;1.30;;;;;;;;;;10540728;28;20051;-78
2022/08/29 23:57:18;;;;;;;2.58;1.27;;;;;;;;;;10527401;28;20157;-76
